Time;durP1;ratioP1;P1;durP2;ratioP2;P2;SDS_P1;SDS_P2;PMS_P1;PMS_P2;Temp;Humidity;BMP_temperature;BMP_pressure;BME280_temperature;BME280_humidity;BME280_pressure;Samples;Min_cycle;Max_cycle;Signal;HPM_P1;HPM_P2
2021/12/09 00:00:59;;;;;;;;;;;;;;;14.71;65.54;99748.66;1049458;28;1464;-63
2021/12/09 00:01:50;;;;;;;;;;;;;;;14.72;65.60;99742.31;1052704;28;1409;-62
2021/12/09 00:02:41;;;;;;;;;;;;;;;14.70;65.33;99745.16;1051915;28;1959;-61
2021/12/09 00:03:32;;;;;;;;;;;;;;;14.69;65.51;99748.81;1052717;28;1460;-62
2021/12/09 00:04:30;;;;;;;;;;;;;;;14.69;65.31;99748.00;1051105;28;1353;-61
2021/12/09 00:05:20;;;;;;;;;;;;;;;14.69;65.74;99743.47;1051793;28;1381;-61
2021/12/09 00:06:11;;;;;;;;;;;;;;;14.68;65.29;99747.16;1052347;28;1352;-62
2021/12/09 00:07:02;;;;;;;;;;;;;;;14.68;65.58;99747.16;1052574;28;1480;-62
2021/12/09 00:07:53;;;;;;;;;;;;;;;14.68;65.49;99749.84;1050168;28;1376;-62
2021/12/09 00:08:43;;;;;;;;;;;;;;;14.68;65.73;99746.31;1051884;28;1686;-61
2021/12/09 00:09:34;;;;;;;;;;;;;;;14.67;65.22;99747.31;1052283;28;1449;-61
2021/12/09 00:10:24;;;;;;;;;;;;;;;14.65;65.20;99736.75;1050460;28;1632;-62
2021/12/09 00:11:15;;;;;;;;;;;;;;;14.66;65.55;99748.31;1052325;28;942;-62
2021/12/09 00:12:05;;;;;;;;;;;;;;;14.65;65.23;99746.63;1049764;28;1303;-62
2021/12/09 00:12:56;;;;;;;;;;;;;;;14.63;65.10;99744.09;1052877;28;702;-62
2021/12/09 00:13:46;;;;;;;;;;;;;;;14.63;65.61;99741.41;1053046;28;1520;-62
2021/12/09 00:14:36;;;;;;;;;;;;;;;14.64;65.40;99748.47;1049937;28;910;-62
2021/12/09 00:15:27;;;;;;;;;;;;;;;14.64;65.64;99744.94;1049924;28;818;-62
2021/12/09 00:16:17;;;;;;;;;;;;;;;14.63;65.59;99751.28;1049730;28;764;-62
2021/12/09 00:17:08;;;;;;;;;;;;;;;14.63;65.69;99743.25;1049862;28;1126;-62
2021/12/09 00:17:58;;;;;;;;;;;;;;;14.63;65.59;99748.59;1051941;28;1505;-62
2021/12/09 00:18:48;;;;;;;;;;;;;;;14.61;65.49;99748.75;1054180;28;763;-63
2021/12/09 00:19:39;;;;;;;;;;;;;;;14.61;65.21;99753.28;1054061;28;903;-62
2021/12/09 00:20:29;;;;;;;;;;;;;;;14.61;65.64;99761.31;1053265;28;1822;-62
2021/12/09 00:21:20;;;;;;;;;;;;;;;14.58;65.03;99752.59;1052364;28;727;-62
2021/12/09 00:22:12;;;;;;;;;;;;;;;14.60;65.60;99755.13;1048728;28;1420;-62
2021/12/09 00:23:02;;;;;;;;;;;;;;;14.58;65.17;99757.09;1049318;28;706;-61
2021/12/09 00:23:53;;;;;;;;;;;;;;;14.58;64.99;99752.59;1050502;28;1274;-61
2021/12/09 00:24:43;;;;;;;;;;;;;;;14.59;65.60;99758.78;1054015;28;797;-61
2021/12/09 00:25:33;;;;;;;;;;;;;;;14.60;65.01;99757.78;1054139;28;790;-62
2021/12/09 00:26:24;;;;;;;;;;;;;;;14.58;65.93;99749.06;1049886;28;1482;-61
2021/12/09 00:27:14;;;;;;;;;;;;;;;14.57;65.78;99750.91;1051970;28;1161;-62
2021/12/09 00:28:05;;;;;;;;;;;;;;;14.56;65.65;99754.56;1052781;28;1316;-63
2021/12/09 00:28:55;;;;;;;;;;;;;;;14.54;65.69;99748.50;1049754;28;793;-62
2021/12/09 00:29:46;;;;;;;;;;;;;;;14.55;65.70;99762.75;1049067;28;1449;-62
2021/12/09 00:30:36;;;;;;;;;;;;;;;14.56;65.25;99756.41;1048197;28;652;-61
2021/12/09 00:31:26;;;;;;;;;;;;;;;14.54;65.02;99761.91;1049862;28;683;-61
2021/12/09 00:32:18;;;;;;;;;;;;;;;14.54;65.65;99758.38;1053465;28;1842;-62
2021/12/09 00:33:09;;;;;;;;;;;;;;;14.54;65.46;99761.91;1049696;28;744;-61
2021/12/09 00:34:01;;;;;;;;;;;;;;;14.53;65.44;99759.38;1047103;28;1403;-62
2021/12/09 00:34:52;;;;;;;;;;;;;;;14.52;65.28;99755.00;1048943;28;707;-62
2021/12/09 00:35:47;;;;;;;;;;;;;;;14.52;65.22;99753.19;1048841;28;693;-62
2021/12/09 00:36:41;;;;;;;;;;;;;;;14.51;65.65;99756.84;1049491;28;766;-62
2021/12/09 00:37:38;;;;;;;;;;;;;;;14.52;65.56;99760.38;1049230;28;682;-61
2021/12/09 00:38:36;;;;;;;;;;;;;;;14.52;65.38;99763.06;1049056;28;930;-61
2021/12/09 00:39:27;;;;;;;;;;;;;;;14.52;65.07;99760.38;1049287;28;714;-62
2021/12/09 00:40:17;;;;;;;;;;;;;;;14.52;65.57;99757.69;1049837;28;664;-61
2021/12/09 00:41:08;;;;;;;;;;;;;;;14.49;64.95;99756.19;1045399;28;702;-62
2021/12/09 00:41:58;;;;;;;;;;;;;;;14.50;65.08;99746.31;1046428;28;1163;-61
2021/12/09 00:42:49;;;;;;;;;;;;;;;14.49;65.62;99758.03;1049711;28;917;-62
2021/12/09 00:43:39;;;;;;;;;;;;;;;14.49;64.92;99763.38;1049393;28;743;-63
2021/12/09 00:44:29;;;;;;;;;;;;;;;14.49;65.18;99758.03;1049071;28;731;-63
2021/12/09 00:45:21;;;;;;;;;;;;;;;14.48;65.61;99759.00;1049807;28;711;-63
2021/12/09 00:46:11;;;;;;;;;;;;;;;14.48;65.39;99762.53;1048598;28;1324;-62
2021/12/09 00:47:02;;;;;;;;;;;;;;;14.47;65.95;99760.84;1048595;28;762;-63
2021/12/09 00:47:52;;;;;;;;;;;;;;;14.48;65.27;99769.75;1051868;28;1056;-62
2021/12/09 00:48:42;;;;;;;;;;;;;;;14.47;65.17;99765.38;1053922;28;689;-63
2021/12/09 00:49:33;;;;;;;;;;;;;;;14.45;65.00;99764.66;1053364;28;768;-63
2021/12/09 00:50:23;;;;;;;;;;;;;;;14.45;65.46;99770.88;1052184;28;1683;-63
2021/12/09 00:51:14;;;;;;;;;;;;;;;14.43;65.21;99764.81;1048180;28;1363;-63
2021/12/09 00:52:04;;;;;;;;;;;;;;;14.43;65.59;99767.50;1051957;28;1196;-63
2021/12/09 00:52:55;;;;;;;;;;;;;;;14.43;65.75;99769.34;1048440;28;1396;-64
2021/12/09 00:53:45;;;;;;;;;;;;;;;14.43;66.18;99772.03;1047322;28;1259;-64
2021/12/09 00:54:35;;;;;;;;;;;;;;;14.42;65.50;99773.00;1049868;28;691;-62
2021/12/09 00:55:27;;;;;;;;;;;;;;;14.43;66.03;99780.06;1049233;28;802;-62
2021/12/09 00:56:18;;;;;;;;;;;;;;;14.43;65.83;99769.34;1050410;28;688;-62
2021/12/09 00:57:08;;;;;;;;;;;;;;;14.42;65.12;99778.38;1049579;28;1216;-63
2021/12/09 00:57:59;;;;;;;;;;;;;;;14.41;64.95;99780.22;1044502;28;1157;-62
2021/12/09 00:58:49;;;;;;;;;;;;;;;14.41;65.22;99777.53;1044935;28;805;-63
2021/12/09 00:59:39;;;;;;;;;;;;;;;14.40;65.29;99781.19;1049802;28;793;-62
2021/12/09 01:00:31;;;;;;;;;;;;;;;14.40;65.26;99774.97;1049293;28;770;-63
2021/12/09 01:01:21;;;;;;;;;;;;;;;14.39;65.29;99776.81;1048633;28;815;-62
2021/12/09 01:02:12;;;;;;;;;;;;;;;14.40;65.32;99783.00;1050204;28;1401;-63
2021/12/09 01:03:02;;;;;;;;;;;;;;;14.39;65.03;99775.94;1050736;28;819;-61
2021/12/09 01:03:53;;;;;;;;;;;;;;;14.38;65.43;99775.09;1050980;28;1488;-62
2021/12/09 01:04:43;;;;;;;;;;;;;;;14.38;65.29;99766.22;1053442;28;703;-62
2021/12/09 01:05:34;;;;;;;;;;;;;;;14.37;65.61;99772.56;1053279;28;744;-62
2021/12/09 01:06:24;;;;;;;;;;;;;;;14.35;65.55;99780.75;1049768;28;819;-62
2021/12/09 01:07:14;;;;;;;;;;;;;;;14.36;65.40;99773.56;1048587;28;695;-62
2021/12/09 01:08:05;;;;;;;;;;;;;;;14.36;65.94;99773.56;1049655;28;1376;-62
2021/12/09 01:08:55;;;;;;;;;;;;;;;14.36;65.12;99773.56;1051614;28;1211;-62
2021/12/09 01:09:46;;;;;;;;;;;;;;;14.36;65.42;99769.06;1052883;28;1265;-62
2021/12/09 01:10:36;;;;;;;;;;;;;;;14.37;65.44;99767.22;1044838;28;689;-62
2021/12/09 01:11:26;;;;;;;;;;;;;;;14.35;65.75;99770.03;1044820;28;712;-62
2021/12/09 01:12:17;;;;;;;;;;;;;;;14.35;65.57;99767.38;1049800;28;1224;-62
2021/12/09 01:13:07;;;;;;;;;;;;;;;14.33;65.90;99772.03;1049307;28;704;-62
2021/12/09 01:13:58;;;;;;;;;;;;;;;14.33;65.72;99771.22;1051351;28;1209;-62
2021/12/09 01:14:48;;;;;;;;;;;;;;;14.33;65.42;99771.22;1054845;28;632;-63
2021/12/09 01:15:39;;;;;;;;;;;;;;;14.33;65.42;99773.91;1054805;28;732;-63
2021/12/09 01:16:29;;;;;;;;;;;;;;;14.33;65.66;99777.38;1050627;28;815;-63
2021/12/09 01:17:19;;;;;;;;;;;;;;;14.33;65.86;99779.25;1049899;28;767;-63
2021/12/09 01:18:10;;;;;;;;;;;;;;;14.33;65.71;99773.91;1051164;28;1596;-63
2021/12/09 01:19:00;;;;;;;;;;;;;;;14.32;64.92;99775.72;1049467;28;739;-63
2021/12/09 01:19:52;;;;;;;;;;;;;;;14.34;65.05;99783.59;1050333;28;1227;-63
2021/12/09 01:20:43;;;;;;;;;;;;;;;14.32;65.86;99777.56;1054287;28;722;-62
2021/12/09 01:21:33;;;;;;;;;;;;;;;14.32;65.17;99777.56;1050337;28;719;-63
2021/12/09 01:22:31;;;;;;;;;;;;;;;14.31;65.58;99781.25;1046737;28;1914;-63
2021/12/09 01:23:21;;;;;;;;;;;;;;;14.30;65.48;99779.56;1049469;28;686;-63
2021/12/09 01:24:12;;;;;;;;;;;;;;;14.30;65.18;99785.75;1053717;28;1360;-63
2021/12/09 01:25:02;;;;;;;;;;;;;;;14.30;65.14;99779.56;1054313;28;708;-62
2021/12/09 01:25:58;;;;;;;;;;;;;;;14.30;65.74;99790.28;1052068;28;1521;-63
2021/12/09 01:26:50;;;;;;;;;;;;;;;14.29;65.21;99788.59;1050316;28;1630;-60
2021/12/09 01:27:43;;;;;;;;;;;;;;;14.27;65.74;99778.00;1049914;28;745;-61
2021/12/09 01:28:42;;;;;;;;;;;;;;;14.28;65.14;99777.00;1051120;28;847;-61
2021/12/09 01:29:39;;;;;;;;;;;;;;;14.28;65.22;99778.84;1049914;28;783;-60
2021/12/09 01:30:30;;;;;;;;;;;;;;;14.28;65.66;99778.84;1050069;28;726;-61
2021/12/09 01:31:24;;;;;;;;;;;;;;;14.28;65.39;99781.53;1046175;28;801;-61
2021/12/09 01:32:15;;;;;;;;;;;;;;;14.27;65.24;99783.38;1048980;28;812;-60
2021/12/09 01:33:06;;;;;;;;;;;;;;;14.27;65.16;99779.84;1050055;28;698;-61
2021/12/09 01:34:01;;;;;;;;;;;;;;;14.25;65.52;99783.50;1049202;28;1478;-60
2021/12/09 01:34:51;;;;;;;;;;;;;;;14.27;65.38;99779.84;1050479;28;806;-61
2021/12/09 01:35:47;;;;;;;;;;;;;;;14.27;64.97;99782.53;1050615;28;851;-61
2021/12/09 01:36:37;;;;;;;;;;;;;;;14.25;65.89;99780.00;1050239;28;1670;-61
2021/12/09 01:37:28;;;;;;;;;;;;;;;14.25;65.10;99780.00;1049331;28;731;-61
2021/12/09 01:38:19;;;;;;;;;;;;;;;14.24;65.01;99779.16;1049787;28;1731;-61
2021/12/09 01:39:11;;;;;;;;;;;;;;;14.24;65.11;99781.81;1054672;28;854;-62
2021/12/09 01:40:03;;;;;;;;;;;;;;;14.25;65.76;99774.63;1052009;28;1149;-62
2021/12/09 01:40:55;;;;;;;;;;;;;;;14.24;65.12;99779.16;1050526;28;820;-62
2021/12/09 01:41:45;;;;;;;;;;;;;;;14.23;65.48;99774.78;1050842;28;1488;-62
2021/12/09 01:42:35;;;;;;;;;;;;;;;14.22;65.40;99778.44;1050129;28;1939;-62
2021/12/09 01:43:26;;;;;;;;;;;;;;;14.22;65.71;99778.44;1050257;28;668;-62
2021/12/09 01:44:16;;;;;;;;;;;;;;;14.21;65.51;99776.75;1050195;28;901;-62
2021/12/09 01:45:07;;;;;;;;;;;;;;;14.21;65.23;99778.59;1050253;28;801;-63
2021/12/09 01:45:57;;;;;;;;;;;;;;;14.20;65.58;99774.22;1053973;28;749;-61
2021/12/09 01:46:47;;;;;;;;;;;;;;;14.20;65.44;99779.59;1050468;28;1781;-61
2021/12/09 01:47:38;;;;;;;;;;;;;;;14.21;65.13;99782.13;1049175;28;928;-61
2021/12/09 01:48:28;;;;;;;;;;;;;;;14.21;65.66;99779.44;1050055;28;660;-62
2021/12/09 01:49:19;;;;;;;;;;;;;;;14.21;64.75;99782.13;1049224;28;812;-62
2021/12/09 01:50:09;;;;;;;;;;;;;;;14.20;65.02;99774.22;1052890;28;1249;-62
2021/12/09 01:51:00;;;;;;;;;;;;;;;14.19;65.87;99781.41;1054799;28;753;-62
2021/12/09 01:51:50;;;;;;;;;;;;;;;14.19;65.97;99780.56;1053557;28;1378;-62
2021/12/09 01:52:40;;;;;;;;;;;;;;;14.18;65.27;99777.03;1050492;28;694;-61
2021/12/09 01:53:31;;;;;;;;;;;;;;;14.18;65.76;99773.53;1049849;28;732;-62
2021/12/09 01:54:24;;;;;;;;;;;;;;;14.17;65.26;99775.34;1045520;28;813;-62
2021/12/09 01:55:14;;;;;;;;;;;;;;;14.18;65.67;99770.84;1045532;28;759;-61
2021/12/09 01:56:05;;;;;;;;;;;;;;;14.17;65.57;99769.16;1049092;28;1445;-61
2021/12/09 01:56:55;;;;;;;;;;;;;;;14.17;64.86;99767.31;1049945;28;769;-62
2021/12/09 01:57:45;;;;;;;;;;;;;;;14.18;65.66;99774.38;1049896;28;795;-62
2021/12/09 01:58:36;;;;;;;;;;;;;;;14.15;65.62;99769.31;1049863;28;760;-62
2021/12/09 01:59:26;;;;;;;;;;;;;;;14.15;65.74;99769.31;1050092;28;712;-62
2021/12/09 02:00:17;;;;;;;;;;;;;;;14.15;64.84;99766.63;1049777;28;848;-61
2021/12/09 02:01:07;;;;;;;;;;;;;;;14.14;65.43;99775.69;1050480;28;723;-59
2021/12/09 02:01:57;;;;;;;;;;;;;;;14.14;65.21;99764.97;1051720;28;1380;-61
2021/12/09 02:02:49;;;;;;;;;;;;;;;14.14;65.39;99769.47;1054706;28;713;-61
2021/12/09 02:03:39;;;;;;;;;;;;;;;14.13;65.31;99768.63;1054171;28;739;-61
2021/12/09 02:04:30;;;;;;;;;;;;;;;14.14;64.94;99764.13;1050388;28;757;-63
2021/12/09 02:05:20;;;;;;;;;;;;;;;14.13;64.91;99763.28;1053996;28;2029;-63
2021/12/09 02:06:11;;;;;;;;;;;;;;;14.13;65.06;99763.28;1049042;28;1614;-62
2021/12/09 02:07:01;;;;;;;;;;;;;;;14.12;65.15;99769.63;1049912;28;1035;-61
2021/12/09 02:07:51;;;;;;;;;;;;;;;14.12;65.10;99766.09;1049737;28;1443;-62
2021/12/09 02:08:43;;;;;;;;;;;;;;;14.13;65.31;99767.78;1049798;28;775;-62
2021/12/09 02:09:35;;;;;;;;;;;;;;;14.11;65.67;99762.56;1049849;28;700;-61
2021/12/09 02:10:25;;;;;;;;;;;;;;;14.12;65.53;99766.94;1049871;28;722;-62
2021/12/09 02:11:16;;;;;;;;;;;;;;;14.12;65.45;99766.09;1049924;28;691;-61
2021/12/09 02:12:06;;;;;;;;;;;;;;;14.11;65.29;99769.78;1053388;28;1508;-61
2021/12/09 02:12:56;;;;;;;;;;;;;;;14.10;65.76;99768.94;1054581;28;660;-61
2021/12/09 02:13:50;;;;;;;;;;;;;;;14.09;65.54;99767.25;1054015;28;1469;-66
2021/12/09 02:14:42;;;;;;;;;;;;;;;14.09;65.44;99766.41;1050271;28;862;-61
2021/12/09 02:15:34;;;;;;;;;;;;;;;14.09;65.66;99767.25;1049727;28;771;-61
2021/12/09 02:16:24;;;;;;;;;;;;;;;14.10;65.49;99765.41;1050362;28;850;-61
2021/12/09 02:17:15;;;;;;;;;;;;;;;14.10;65.02;99762.72;1049971;28;696;-61
2021/12/09 02:18:05;;;;;;;;;;;;;;;14.09;65.16;99767.25;1049765;28;1451;-61
2021/12/09 02:18:56;;;;;;;;;;;;;;;14.08;65.64;99768.22;1049601;28;1067;-62
2021/12/09 02:19:46;;;;;;;;;;;;;;;14.08;64.88;99768.22;1045804;28;1398;-60
2021/12/09 02:20:38;;;;;;;;;;;;;;;14.09;65.12;99769.06;1044915;28;803;-61
2021/12/09 02:21:28;;;;;;;;;;;;;;;14.09;65.55;99767.25;1049387;28;704;-61
2021/12/09 02:22:19;;;;;;;;;;;;;;;14.07;65.18;99769.22;1048430;28;1913;-61
2021/12/09 02:23:11;;;;;;;;;;;;;;;14.07;65.13;99763.84;1053145;28;1013;-62
2021/12/09 02:24:01;;;;;;;;;;;;;;;14.06;65.43;99762.16;1053159;28;1272;-61
2021/12/09 02:24:52;;;;;;;;;;;;;;;14.07;65.53;99768.38;1054472;28;809;-62
2021/12/09 02:25:44;;;;;;;;;;;;;;;14.06;65.15;99767.53;1054526;28;703;-61
2021/12/09 02:26:35;;;;;;;;;;;;;;;14.06;65.50;99766.69;1051917;28;1453;-61
2021/12/09 02:27:25;;;;;;;;;;;;;;;14.05;64.88;99765.84;1054637;28;726;-61
2021/12/09 02:28:16;;;;;;;;;;;;;;;14.05;65.37;99765.84;1050834;28;805;-61
2021/12/09 02:29:06;;;;;;;;;;;;;;;14.06;65.34;99772.03;1049753;28;723;-61
2021/12/09 02:29:57;;;;;;;;;;;;;;;14.06;65.57;99766.69;1051664;28;1672;-61
2021/12/09 02:30:47;;;;;;;;;;;;;;;14.05;64.94;99771.19;1053882;28;828;-62
2021/12/09 02:31:37;;;;;;;;;;;;;;;14.07;65.16;99771.06;1054557;28;644;-62
2021/12/09 02:32:28;;;;;;;;;;;;;;;14.05;65.76;99767.66;1050862;28;636;-62
2021/12/09 02:33:18;;;;;;;;;;;;;;;14.04;65.41;99771.34;1049725;28;1863;-63
2021/12/09 02:34:09;;;;;;;;;;;;;;;14.04;65.07;99763.31;1053155;28;1375;-62
2021/12/09 02:34:59;;;;;;;;;;;;;;;14.04;65.36;99768.66;1050031;28;715;-62
2021/12/09 02:35:49;;;;;;;;;;;;;;;14.03;65.47;99765.13;1048604;28;1475;-63
2021/12/09 02:36:42;;;;;;;;;;;;;;;14.03;64.97;99765.13;1050703;28;1032;-62
2021/12/09 02:37:32;;;;;;;;;;;;;;;14.03;65.60;99770.50;1045379;28;832;-62
2021/12/09 02:38:23;;;;;;;;;;;;;;;14.03;64.97;99766.97;1044617;28;806;-62
2021/12/09 02:39:13;;;;;;;;;;;;;;;14.04;65.32;99769.50;1049762;28;797;-62
2021/12/09 02:40:04;;;;;;;;;;;;;;;14.03;64.77;99767.81;1048315;28;1423;-61
2021/12/09 02:40:56;;;;;;;;;;;;;;;14.03;64.92;99769.66;1049190;28;664;-62
2021/12/09 02:41:46;;;;;;;;;;;;;;;14.02;65.54;99771.50;1050719;28;1541;-62
2021/12/09 02:42:37;;;;;;;;;;;;;;;14.00;65.36;99765.44;1050553;28;1890;-61
2021/12/09 02:43:28;;;;;;;;;;;;;;;14.00;64.96;99765.44;1048289;28;1757;-62
2021/12/09 02:44:18;;;;;;;;;;;;;;;14.00;65.08;99772.63;1049594;28;812;-62
2021/12/09 02:45:09;;;;;;;;;;;;;;;14.01;65.29;99774.31;1049729;28;740;-62
2021/12/09 02:46:00;;;;;;;;;;;;;;;14.00;64.70;99768.09;1052374;28;1385;-62
2021/12/09 02:46:51;;;;;;;;;;;;;;;14.01;65.32;99769.78;1053928;28;811;-62
2021/12/09 02:47:41;;;;;;;;;;;;;;;14.00;65.13;99772.63;1049934;28;816;-62
2021/12/09 02:48:32;;;;;;;;;;;;;;;13.98;65.37;99770.09;1045930;28;669;-62
2021/12/09 02:49:22;;;;;;;;;;;;;;;13.98;65.60;99766.56;1050275;28;750;-62
2021/12/09 02:50:13;;;;;;;;;;;;;;;13.99;65.58;99777.13;1053789;28;1751;-63
2021/12/09 02:51:03;;;;;;;;;;;;;;;13.98;65.16;99775.44;1052961;28;715;-63
2021/12/09 02:51:54;;;;;;;;;;;;;;;13.97;64.85;99773.78;1051041;28;1369;-63
2021/12/09 02:52:44;;;;;;;;;;;;;;;13.97;64.85;99776.47;1053865;28;692;-62
2021/12/09 02:53:34;;;;;;;;;;;;;;;13.98;65.21;99778.13;1050853;28;726;-63
2021/12/09 02:54:25;;;;;;;;;;;;;;;13.98;65.00;99775.44;1048284;28;800;-63
2021/12/09 02:55:15;;;;;;;;;;;;;;;13.99;64.92;99782.50;1050290;28;1959;-63
2021/12/09 02:56:06;;;;;;;;;;;;;;;13.99;65.00;99782.50;1050735;28;1522;-61
2021/12/09 02:56:56;;;;;;;;;;;;;;;13.99;64.68;99782.50;1049040;28;711;-63
2021/12/09 02:57:46;;;;;;;;;;;;;;;13.99;64.69;99785.16;1049345;28;1462;-64
2021/12/09 02:58:37;;;;;;;;;;;;;;;13.99;64.66;99785.16;1051667;28;1224;-64
2021/12/09 02:59:27;;;;;;;;;;;;;;;13.99;64.63;99782.50;1051479;28;1366;-64
2021/12/09 03:00:20;;;;;;;;;;;;;;;13.98;65.17;99779.97;1048099;28;1353;-63
2021/12/09 03:01:14;;;;;;;;;;;;;;;13.97;65.42;99780.97;1050007;28;814;-64
2021/12/09 03:02:05;;;;;;;;;;;;;;;13.95;65.58;99781.13;1050440;28;843;-64
2021/12/09 03:02:57;;;;;;;;;;;;;;;13.96;65.38;99780.13;1050646;28;685;-65
2021/12/09 03:03:52;;;;;;;;;;;;;;;13.95;65.51;99786.47;1053701;28;1364;-64
2021/12/09 03:04:43;;;;;;;;;;;;;;;13.95;65.05;99777.59;1050088;28;931;-64
2021/12/09 03:05:33;;;;;;;;;;;;;;;13.94;65.19;99784.78;1050513;28;1697;-62
2021/12/09 03:06:25;;;;;;;;;;;;;;;13.94;65.18;99790.16;1049514;28;771;-63
2021/12/09 03:07:16;;;;;;;;;;;;;;;13.93;64.80;99785.78;1049046;28;815;-62
2021/12/09 03:08:08;;;;;;;;;;;;;;;13.93;65.49;99782.25;1048157;28;1399;-63
2021/12/09 03:09:01;;;;;;;;;;;;;;;13.92;65.28;99786.78;1052855;28;986;-63
2021/12/09 03:09:54;;;;;;;;;;;;;;;13.93;64.99;99792.97;1051711;28;1477;-62
2021/12/09 03:10:44;;;;;;;;;;;;;;;13.92;65.14;99792.13;1046290;28;1156;-63
2021/12/09 03:11:35;;;;;;;;;;;;;;;13.92;64.74;99792.13;1045079;28;788;-62
2021/12/09 03:12:25;;;;;;;;;;;;;;;13.92;65.14;99789.44;1049223;28;1200;-63
2021/12/09 03:13:17;;;;;;;;;;;;;;;13.91;65.37;99785.09;1053746;28;714;-63
2021/12/09 03:14:07;;;;;;;;;;;;;;;13.93;64.70;99788.47;1049699;28;1427;-63
2021/12/09 03:14:58;;;;;;;;;;;;;;;13.91;65.00;99782.41;1049802;28;760;-63
2021/12/09 03:15:48;;;;;;;;;;;;;;;13.91;65.31;99785.09;1052817;28;1993;-64
2021/12/09 03:16:39;;;;;;;;;;;;;;;13.90;65.04;99778.88;1049634;28;710;-63
2021/12/09 03:17:29;;;;;;;;;;;;;;;13.88;65.00;99786.22;1049554;28;772;-64
2021/12/09 03:18:20;;;;;;;;;;;;;;;13.89;64.92;99782.53;1049681;28;695;-63
2021/12/09 03:19:10;;;;;;;;;;;;;;;13.89;64.94;99782.53;1048808;28;916;-63
2021/12/09 03:20:00;;;;;;;;;;;;;;;13.89;65.01;99784.38;1048966;28;1311;-64
2021/12/09 03:20:51;;;;;;;;;;;;;;;13.88;64.87;99785.38;1050245;28;743;-63
2021/12/09 03:21:41;;;;;;;;;;;;;;;13.89;65.23;99781.69;1050153;28;984;-63
2021/12/09 03:22:32;;;;;;;;;;;;;;;13.89;64.71;99782.53;1050132;28;1906;-63
2021/12/09 03:23:23;;;;;;;;;;;;;;;13.88;65.31;99786.22;1048346;28;1369;-65
2021/12/09 03:24:13;;;;;;;;;;;;;;;13.89;64.96;99781.69;1044876;28;644;-63
2021/12/09 03:25:04;;;;;;;;;;;;;;;13.88;64.67;99785.38;1047322;28;1565;-64
2021/12/09 03:25:54;;;;;;;;;;;;;;;13.88;65.46;99785.38;1047532;28;1334;-64
2021/12/09 03:26:46;;;;;;;;;;;;;;;13.87;64.77;99781.00;1051055;28;1402;-64
2021/12/09 03:27:37;;;;;;;;;;;;;;;13.86;65.17;99782.84;1053109;28;1357;-63
2021/12/09 03:28:27;;;;;;;;;;;;;;;13.87;65.22;99784.53;1049512;28;699;-64
2021/12/09 03:29:17;;;;;;;;;;;;;;;13.87;65.18;99783.69;1049195;28;759;-63
2021/12/09 03:30:08;;;;;;;;;;;;;;;13.87;65.25;99784.53;1048829;28;761;-63
2021/12/09 03:30:58;;;;;;;;;;;;;;;13.86;64.95;99790.03;1049043;28;809;-63
2021/12/09 03:31:49;;;;;;;;;;;;;;;13.87;65.53;99789.88;1049731;28;1316;-63
2021/12/09 03:32:39;;;;;;;;;;;;;;;13.85;65.55;99793.69;1054310;28;709;-64
2021/12/09 03:33:29;;;;;;;;;;;;;;;13.84;65.05;99794.69;1054376;28;744;-64
2021/12/09 03:34:20;;;;;;;;;;;;;;;13.85;65.02;99789.19;1050596;28;809;-64
2021/12/09 03:35:11;;;;;;;;;;;;;;;13.84;65.59;99786.66;1049713;28;1854;-64
2021/12/09 03:36:01;;;;;;;;;;;;;;;13.84;65.59;99794.69;1051927;28;1382;-64
2021/12/09 03:36:51;;;;;;;;;;;;;;;13.82;65.27;99794.81;1053780;28;1058;-63
2021/12/09 03:37:42;;;;;;;;;;;;;;;13.83;65.41;99793.00;1050660;28;799;-64
2021/12/09 03:38:32;;;;;;;;;;;;;;;13.83;64.60;99782.28;1048387;28;724;-64
2021/12/09 03:39:23;;;;;;;;;;;;;;;13.82;64.64;99793.97;1048239;28;708;-63
2021/12/09 03:40:14;;;;;;;;;;;;;;;13.82;65.43;99789.47;1048282;28;950;-63
2021/12/09 03:41:05;;;;;;;;;;;;;;;13.82;65.49;99791.28;1049437;28;784;-64
2021/12/09 03:41:55;;;;;;;;;;;;;;;13.82;64.76;99791.28;1051603;28;1456;-64
2021/12/09 03:42:46;;;;;;;;;;;;;;;13.82;65.14;99788.63;1054223;28;1939;-63
2021/12/09 03:43:36;;;;;;;;;;;;;;;13.81;65.39;99790.44;1054303;28;720;-63
2021/12/09 03:44:28;;;;;;;;;;;;;;;13.82;65.39;99783.25;1050038;28;860;-63
2021/12/09 03:45:18;;;;;;;;;;;;;;;13.81;64.77;99790.44;1050885;28;1760;-63
2021/12/09 03:46:08;;;;;;;;;;;;;;;13.81;65.46;99786.94;1052452;28;836;-64
2021/12/09 03:46:59;;;;;;;;;;;;;;;13.80;65.45;99793.28;1052348;28;710;-64
2021/12/09 03:47:49;;;;;;;;;;;;;;;13.80;65.58;99783.41;1051577;28;1361;-64
2021/12/09 03:48:40;;;;;;;;;;;;;;;13.79;64.71;99787.06;1049913;28;892;-64
2021/12/09 03:49:30;;;;;;;;;;;;;;;13.80;65.14;99787.91;1050022;28;873;-63
2021/12/09 03:50:20;;;;;;;;;;;;;;;13.79;64.66;99787.06;1052963;28;806;-64
2021/12/09 03:51:11;;;;;;;;;;;;;;;13.79;65.45;99794.28;1053613;28;687;-64
2021/12/09 03:52:01;;;;;;;;;;;;;;;13.79;65.42;99786.25;1050909;28;1473;-63
2021/12/09 03:52:52;;;;;;;;;;;;;;;13.78;65.47;99781.88;1050520;28;993;-64
2021/12/09 03:53:42;;;;;;;;;;;;;;;13.78;64.87;99787.25;1048945;28;683;-64
2021/12/09 03:54:32;;;;;;;;;;;;;;;13.78;65.48;99792.59;1049441;28;862;-64
2021/12/09 03:55:23;;;;;;;;;;;;;;;13.78;65.46;99789.94;1051645;28;1993;-64
2021/12/09 03:56:13;;;;;;;;;;;;;;;13.79;65.07;99799.66;1049950;28;785;-63
2021/12/09 03:57:04;;;;;;;;;;;;;;;13.80;64.81;99798.63;1049437;28;708;-64
2021/12/09 03:57:54;;;;;;;;;;;;;;;13.79;65.04;99794.28;1050838;28;1381;-64
2021/12/09 03:58:45;;;;;;;;;;;;;;;13.77;64.79;99799.78;1053413;28;1141;-64
2021/12/09 03:59:35;;;;;;;;;;;;;;;13.77;64.72;99796.28;1053645;28;728;-64
2021/12/09 04:00:28;;;;;;;;;;;;;;;13.77;65.07;99798.94;1050011;28;823;-64
2021/12/09 04:01:18;;;;;;;;;;;;;;;13.77;65.22;99801.63;1049083;28;649;-63
2021/12/09 04:02:08;;;;;;;;;;;;;;;13.77;64.65;99796.28;1048657;28;1153;-63
2021/12/09 04:02:59;;;;;;;;;;;;;;;13.75;64.74;99799.09;1049997;28;831;-63
2021/12/09 04:03:49;;;;;;;;;;;;;;;13.76;64.69;99795.44;1050824;28;1441;-63
2021/12/09 04:04:40;;;;;;;;;;;;;;;13.75;65.53;99799.09;1054271;28;1124;-63
2021/12/09 04:05:30;;;;;;;;;;;;;;;13.75;65.26;99790.22;1053456;28;1765;-63
2021/12/09 04:06:21;;;;;;;;;;;;;;;13.76;65.06;99802.63;1050041;28;1054;-64
2021/12/09 04:07:11;;;;;;;;;;;;;;;13.76;65.42;99797.25;1049285;28;878;-64
2021/12/09 04:08:03;;;;;;;;;;;;;;;13.75;65.43;99787.53;1049342;28;1529;-64
2021/12/09 04:08:53;;;;;;;;;;;;;;;13.75;64.61;99792.88;1049976;28;684;-64
2021/12/09 04:09:44;;;;;;;;;;;;;;;13.73;64.96;99795.72;1050520;28;1412;-64
2021/12/09 04:10:34;;;;;;;;;;;;;;;13.75;64.75;99800.91;1053589;28;759;-64
2021/12/09 04:11:24;;;;;;;;;;;;;;;13.74;64.65;99801.91;1053622;28;833;-64
2021/12/09 04:12:15;;;;;;;;;;;;;;;13.73;64.78;99794.88;1049801;28;1133;-63
2021/12/09 04:13:06;;;;;;;;;;;;;;;13.72;65.26;99802.06;1049359;28;628;-64
2021/12/09 04:13:56;;;;;;;;;;;;;;;13.72;65.57;99803.88;1048598;28;1475;-63
2021/12/09 04:14:46;;;;;;;;;;;;;;;13.73;65.18;99800.22;1049970;28;673;-64
2021/12/09 04:15:37;;;;;;;;;;;;;;;13.73;64.76;99797.53;1053101;28;2091;-62
2021/12/09 04:16:29;;;;;;;;;;;;;;;13.72;65.22;99804.72;1050617;28;712;-63
2021/12/09 04:17:19;;;;;;;;;;;;;;;13.73;64.62;99802.91;1049873;28;817;-63
2021/12/09 04:18:09;;;;;;;;;;;;;;;13.74;65.36;99808.09;1048825;28;717;-62
2021/12/09 04:19:00;;;;;;;;;;;;;;;13.74;65.33;99804.59;1048645;28;696;-63
2021/12/09 04:19:50;;;;;;;;;;;;;;;13.73;64.59;99805.56;1048603;28;910;-62
2021/12/09 04:20:41;;;;;;;;;;;;;;;13.71;65.18;99805.72;1048496;28;908;-62
2021/12/09 04:21:31;;;;;;;;;;;;;;;13.73;64.59;99803.75;1048689;28;718;-62
2021/12/09 04:22:21;;;;;;;;;;;;;;;13.72;65.32;99803.88;1048978;28;800;-62
2021/12/09 04:23:12;;;;;;;;;;;;;;;13.72;64.44;99807.41;1049779;28;1214;-62
2021/12/09 04:24:07;;;;;;;;;;;;;;;13.72;64.69;99810.09;1046180;28;1328;-62
2021/12/09 04:24:58;;;;;;;;;;;;;;;13.71;65.52;99818.25;1044227;28;683;-62
2021/12/09 04:25:48;;;;;;;;;;;;;;;13.71;64.98;99810.22;1049417;28;1272;-63
2021/12/09 04:26:39;;;;;;;;;;;;;;;13.71;64.65;99810.22;1047383;28;1596;-62
2021/12/09 04:27:29;;;;;;;;;;;;;;;13.70;64.91;99813.88;1044355;28;786;-62
2021/12/09 04:28:19;;;;;;;;;;;;;;;13.70;65.27;99813.88;1048253;28;889;-62
2021/12/09 04:29:10;;;;;;;;;;;;;;;13.69;64.89;99807.69;1049931;28;967;-62
2021/12/09 04:30:00;;;;;;;;;;;;;;;13.71;65.24;99804.88;1049710;28;747;-63
2021/12/09 04:30:51;;;;;;;;;;;;;;;13.69;64.80;99807.69;1049936;28;751;-63